createdAt,value
2023-05-19T00:00:52.304Z,8.98
2023-05-19T00:01:55.020Z,8.96
2023-05-19T00:02:57.287Z,8.92
2023-05-19T00:04:02.721Z,8.92
2023-05-19T00:05:05.065Z,9.09
2023-05-19T00:06:10.605Z,9.05
2023-05-19T00:07:13.121Z,9.02
2023-05-19T00:08:16.385Z,8.96
2023-05-19T00:09:18.496Z,8.95
2023-05-19T00:10:20.515Z,8.91
2023-05-19T00:11:22.910Z,8.86
2023-05-19T00:12:24.840Z,8.85
2023-05-19T00:13:27.198Z,8.92
2023-05-19T00:14:29.418Z,8.90
2023-05-19T00:15:31.453Z,8.81
2023-05-19T00:16:34.002Z,8.77
2023-05-19T00:17:37.089Z,8.75
2023-05-19T00:18:38.844Z,8.79
2023-05-19T00:19:40.675Z,8.72
2023-05-19T00:20:42.889Z,8.75
2023-05-19T00:21:44.512Z,8.79
2023-05-19T00:22:46.180Z,8.72
2023-05-19T00:23:47.869Z,8.78
2023-05-19T00:24:49.574Z,8.95
2023-05-19T00:25:52.317Z,8.95
2023-05-19T00:26:54.015Z,8.93
2023-05-19T00:27:55.769Z,8.86
2023-05-19T00:28:57.472Z,8.85
2023-05-19T00:29:59.126Z,8.75
2023-05-19T00:31:02.265Z,8.67
2023-05-19T00:32:04.268Z,8.78
2023-05-19T00:33:08.903Z,8.71
2023-05-19T00:34:10.527Z,8.74
2023-05-19T00:35:12.395Z,8.76
2023-05-19T00:36:14.127Z,8.71
2023-05-19T00:37:15.773Z,8.69
2023-05-19T00:38:17.570Z,8.72
2023-05-19T00:39:19.255Z,8.67
2023-05-19T00:40:21.396Z,8.72
2023-05-19T00:41:22.998Z,8.79
2023-05-19T00:42:24.615Z,8.78
2023-05-19T00:43:26.375Z,8.84
2023-05-19T00:44:28.319Z,8.75
2023-05-19T00:45:29.986Z,8.78
2023-05-19T00:46:31.617Z,8.64
2023-05-19T00:47:33.550Z,8.63
2023-05-19T00:48:35.174Z,8.63
2023-05-19T00:49:36.825Z,8.67
2023-05-19T00:50:38.740Z,8.57
2023-05-19T00:51:40.798Z,8.55
2023-05-19T00:52:42.494Z,8.52
2023-05-19T00:53:48.592Z,8.60
2023-05-19T00:54:51.734Z,8.56
2023-05-19T00:55:53.558Z,8.59
2023-05-19T00:56:55.450Z,8.55
2023-05-19T00:57:57.371Z,8.59
2023-05-19T00:58:59.518Z,8.57
2023-05-19T01:00:01.325Z,8.58
2023-05-19T01:01:04.480Z,8.60
2023-05-19T01:02:06.910Z,8.49
2023-05-19T01:03:11.471Z,8.41
2023-05-19T01:04:47.004Z,8.51
2023-05-19T01:05:49.803Z,8.51
2023-05-19T01:06:54.835Z,8.43
2023-05-19T01:07:56.633Z,8.61
2023-05-19T01:08:58.371Z,8.56
2023-05-19T01:10:00.057Z,8.55
2023-05-19T01:11:01.796Z,8.52
2023-05-19T01:12:03.981Z,8.46
2023-05-19T01:13:06.316Z,8.53
2023-05-19T01:14:08.117Z,8.56
2023-05-19T01:15:10.332Z,8.53
2023-05-19T01:16:13.134Z,8.51
2023-05-19T01:17:23.149Z,8.55
2023-05-19T01:18:47.839Z,8.47
2023-05-19T01:20:18.561Z,8.50
2023-05-19T01:21:30.468Z,8.56
2023-05-19T01:23:05.899Z,8.55
2023-05-19T01:24:18.418Z,8.53
2023-05-19T01:25:57.271Z,8.47
2023-05-19T01:27:31.459Z,8.51
2023-05-19T01:28:57.399Z,8.41
2023-05-19T01:30:25.379Z,8.49
2023-05-19T01:31:27.128Z,8.47
2023-05-19T01:32:29.322Z,8.42
2023-05-19T01:33:31.506Z,8.37
2023-05-19T01:34:36.099Z,8.38
2023-05-19T01:35:39.168Z,8.28
2023-05-19T01:36:41.861Z,8.35
2023-05-19T01:37:45.325Z,8.44
2023-05-19T01:38:49.969Z,8.48
2023-05-19T01:39:52.407Z,8.39
2023-05-19T01:40:54.541Z,8.35
2023-05-19T01:41:56.631Z,8.36
2023-05-19T01:43:00.243Z,8.38
2023-05-19T01:44:02.361Z,8.42
2023-05-19T01:45:06.597Z,8.39
2023-05-19T01:46:08.515Z,8.42
2023-05-19T01:47:10.996Z,8.44
2023-05-19T01:48:13.485Z,8.36
2023-05-19T01:49:15.066Z,8.37
2023-05-19T01:50:19.435Z,8.38
2023-05-19T01:51:21.072Z,8.46
2023-05-19T01:52:22.746Z,8.42
2023-05-19T01:53:24.954Z,8.37
2023-05-19T01:54:26.568Z,8.48
2023-05-19T01:55:28.184Z,8.36
2023-05-19T01:56:49.603Z,8.36
2023-05-19T01:58:13.200Z,8.38
2023-05-19T01:59:44.791Z,8.46
2023-05-19T02:01:19.955Z,8.36
2023-05-19T02:02:36.997Z,8.33
2023-05-19T02:03:59.408Z,8.32
2023-05-19T02:05:10.397Z,8.37
2023-05-19T02:06:29.926Z,8.37
2023-05-19T02:07:42.802Z,8.28
2023-05-19T02:08:52.160Z,8.35
2023-05-19T02:10:05.834Z,8.25
2023-05-19T02:11:17.971Z,8.23
2023-05-19T02:12:24.888Z,8.38
2023-05-19T02:13:30.358Z,8.31
2023-05-19T02:14:51.123Z,8.30
2023-05-19T02:15:52.737Z,8.34
2023-05-19T02:16:57.717Z,8.25
2023-05-19T02:18:00.299Z,8.35
2023-05-19T02:19:02.693Z,8.36
2023-05-19T02:20:05.009Z,8.40
2023-05-19T02:21:06.878Z,8.32
2023-05-19T02:22:08.519Z,8.35
2023-05-19T02:23:10.143Z,8.39
2023-05-19T02:24:11.738Z,8.34
2023-05-19T02:25:13.446Z,8.33
2023-05-19T02:26:15.078Z,8.36
2023-05-19T02:27:16.674Z,8.44
2023-05-19T02:28:18.790Z,8.41
2023-05-19T02:29:21.044Z,8.41
2023-05-19T02:30:22.761Z,8.33
2023-05-19T02:31:24.429Z,8.40
2023-05-19T02:32:26.205Z,8.42
2023-05-19T02:33:30.388Z,8.38
2023-05-19T02:34:32.034Z,8.50
2023-05-19T02:35:33.893Z,8.40
2023-05-19T02:36:39.051Z,8.43
2023-05-19T02:37:40.679Z,8.43
2023-05-19T02:38:42.599Z,8.42
2023-05-19T02:39:44.591Z,8.48
2023-05-19T02:40:47.243Z,8.44
2023-05-19T02:41:48.977Z,8.37
2023-05-19T02:42:50.620Z,8.54
2023-05-19T02:43:52.263Z,8.51
2023-05-19T02:44:55.070Z,8.47
2023-05-19T02:45:56.723Z,8.46
2023-05-19T02:46:58.350Z,8.47
2023-05-19T02:48:00.028Z,8.49
2023-05-19T02:49:01.732Z,8.45
2023-05-19T02:50:03.624Z,8.42
2023-05-19T02:51:05.777Z,8.50
2023-05-19T02:52:07.462Z,8.42
2023-05-19T02:53:09.439Z,8.38
2023-05-19T02:54:11.213Z,8.46
2023-05-19T02:55:17.031Z,8.49
2023-05-19T02:56:18.682Z,8.49
2023-05-19T02:57:20.583Z,8.46
2023-05-19T02:58:22.203Z,8.40
2023-05-19T02:59:25.610Z,8.47
2023-05-19T03:00:27.469Z,8.53
2023-05-19T03:01:29.132Z,8.49
2023-05-19T03:02:33.331Z,8.40
2023-05-19T03:03:35.301Z,8.37
2023-05-19T03:04:41.730Z,8.47
2023-05-19T03:05:43.676Z,8.51
2023-05-19T03:06:45.454Z,8.44
2023-05-19T03:07:47.494Z,8.44
2023-05-19T03:08:49.834Z,8.38
2023-05-19T03:09:52.440Z,8.38
2023-05-19T03:10:54.057Z,8.41
2023-05-19T03:11:55.764Z,8.36
2023-05-19T03:12:57.378Z,8.36
2023-05-19T03:13:58.982Z,8.39
2023-05-19T03:15:01.050Z,8.37
2023-05-19T03:16:03.492Z,8.39
2023-05-19T03:17:08.502Z,8.41
2023-05-19T03:18:11.934Z,8.46
2023-05-19T03:19:13.667Z,8.42
2023-05-19T03:20:17.978Z,8.49
2023-05-19T03:21:19.613Z,8.42
2023-05-19T03:22:21.439Z,8.40
2023-05-19T03:23:23.190Z,8.34
2023-05-19T03:24:24.850Z,8.52
2023-05-19T03:25:26.592Z,8.58
2023-05-19T03:26:29.353Z,8.55
2023-05-19T03:27:31.614Z,8.52
2023-05-19T03:28:33.229Z,8.54
2023-05-19T03:29:34.901Z,8.46
2023-05-19T03:30:37.348Z,8.33
2023-05-19T03:32:01.748Z,8.45
2023-05-19T03:33:05.420Z,8.37
2023-05-19T03:34:07.162Z,8.42
2023-05-19T03:35:08.971Z,8.48
2023-05-19T03:36:12.609Z,8.28
2023-05-19T03:37:14.482Z,8.34
2023-05-19T03:38:16.339Z,8.30
2023-05-19T03:39:25.651Z,8.31
2023-05-19T03:40:28.057Z,8.38
2023-05-19T03:41:36.616Z,8.48
2023-05-19T03:42:38.616Z,8.43
2023-05-19T03:43:40.928Z,8.43
2023-05-19T03:44:44.675Z,8.34
2023-05-19T03:45:46.897Z,8.45
2023-05-19T03:47:17.699Z,8.46
2023-05-19T03:48:21.824Z,8.40
2023-05-19T03:49:42.047Z,8.42
2023-05-19T03:50:44.530Z,8.41
2023-05-19T03:51:53.653Z,8.46
2023-05-19T03:53:21.947Z,8.43
2023-05-19T03:54:23.571Z,8.40
2023-05-19T03:55:26.163Z,8.37
2023-05-19T03:56:28.355Z,8.35
2023-05-19T03:57:29.950Z,8.36
2023-05-19T03:58:31.535Z,8.46
2023-05-19T03:59:33.242Z,8.40
2023-05-19T04:00:35.135Z,8.41
2023-05-19T04:01:37.884Z,8.42
2023-05-19T04:02:40.090Z,8.46
2023-05-19T04:03:42.555Z,8.49
2023-05-19T04:04:44.176Z,8.44
2023-05-19T04:05:45.982Z,8.38
2023-05-19T04:06:48.703Z,8.43
2023-05-19T04:07:51.056Z,8.53
2023-05-19T04:08:52.797Z,8.53
2023-05-19T04:09:54.429Z,8.48
2023-05-19T04:10:56.645Z,8.46
2023-05-19T04:11:58.259Z,8.53
2023-05-19T04:12:59.893Z,8.51
2023-05-19T04:14:01.516Z,8.48
2023-05-19T04:15:03.320Z,8.50
2023-05-19T04:16:05.748Z,8.59
2023-05-19T04:17:07.579Z,8.59
2023-05-19T04:18:09.257Z,8.56
2023-05-19T04:19:10.968Z,8.53
2023-05-19T04:20:12.878Z,8.58
2023-05-19T04:21:14.516Z,8.61
2023-05-19T04:22:16.259Z,8.62
2023-05-19T04:23:17.896Z,8.54
2023-05-19T04:24:19.492Z,8.51
2023-05-19T04:25:21.602Z,8.50
2023-05-19T04:26:24.864Z,8.51
2023-05-19T04:27:28.014Z,8.50
2023-05-19T04:28:30.172Z,8.52
2023-05-19T04:29:32.637Z,8.40
2023-05-19T04:30:34.676Z,8.43
2023-05-19T04:31:37.117Z,8.50
2023-05-19T04:32:41.420Z,8.47
2023-05-19T04:33:43.212Z,8.57
2023-05-19T04:34:46.100Z,8.62
2023-05-19T04:35:52.897Z,8.49
2023-05-19T04:36:55.526Z,8.53
2023-05-19T04:37:57.542Z,8.61
2023-05-19T04:39:07.292Z,8.55
2023-05-19T04:40:11.158Z,8.54
2023-05-19T04:41:13.109Z,8.47
2023-05-19T04:42:19.194Z,8.51
2023-05-19T04:43:22.222Z,8.54
2023-05-19T04:44:25.006Z,8.55
2023-05-19T04:45:26.985Z,8.49
2023-05-19T04:46:31.239Z,8.56
2023-05-19T04:47:36.950Z,8.52
2023-05-19T04:48:40.110Z,8.59
2023-05-19T04:49:41.836Z,8.64
2023-05-19T04:50:43.491Z,8.60
2023-05-19T04:51:46.154Z,8.70
2023-05-19T04:52:47.813Z,8.71
2023-05-19T04:53:49.764Z,8.69
2023-05-19T04:54:51.461Z,8.79
2023-05-19T04:55:53.059Z,8.70
2023-05-19T04:56:54.723Z,8.72
2023-05-19T04:57:56.474Z,8.73
2023-05-19T04:58:58.266Z,8.63
2023-05-19T05:00:01.495Z,8.74
2023-05-19T05:01:13.756Z,8.74
2023-05-19T05:02:16.114Z,8.74
2023-05-19T05:03:18.466Z,8.76
2023-05-19T05:04:21.602Z,8.76
2023-05-19T05:05:23.877Z,8.77
2023-05-19T05:06:26.543Z,8.76
2023-05-19T05:07:29.766Z,8.70
2023-05-19T05:08:33.533Z,8.83
2023-05-19T05:09:35.762Z,8.87
2023-05-19T05:10:37.520Z,8.90
2023-05-19T05:11:40.200Z,8.73
2023-05-19T05:12:42.282Z,8.82
2023-05-19T05:13:44.976Z,8.76
2023-05-19T05:14:46.938Z,8.80
2023-05-19T05:15:49.192Z,8.91
2023-05-19T05:16:51.919Z,8.87
2023-05-19T05:17:58.085Z,8.87
2023-05-19T05:19:01.259Z,8.85
2023-05-19T05:20:05.975Z,8.87
2023-05-19T05:21:08.109Z,8.98
2023-05-19T05:22:10.181Z,9.02
2023-05-19T05:23:15.204Z,9.00
2023-05-19T05:24:18.851Z,9.06
2023-05-19T05:25:25.552Z,9.18
2023-05-19T05:26:30.464Z,9.26
2023-05-19T05:27:32.687Z,9.29
2023-05-19T05:28:34.403Z,9.13
2023-05-19T05:29:36.763Z,9.19
2023-05-19T05:30:41.483Z,9.28
2023-05-19T05:31:43.105Z,9.28
2023-05-19T05:32:45.665Z,9.31
2023-05-19T05:34:01.712Z,9.36
2023-05-19T05:35:06.551Z,9.24
2023-05-19T05:36:08.643Z,9.25
2023-05-19T05:37:11.378Z,9.29
2023-05-19T05:38:14.258Z,9.44
2023-05-19T05:39:16.966Z,9.38
2023-05-19T05:40:20.319Z,9.51
2023-05-19T05:41:22.446Z,9.59
2023-05-19T05:42:27.671Z,9.48
2023-05-19T05:43:31.224Z,9.46
2023-05-19T05:44:35.901Z,9.48
2023-05-19T05:45:39.227Z,9.48
2023-05-19T05:46:41.606Z,9.45
2023-05-19T05:47:44.311Z,9.65
2023-05-19T05:48:46.476Z,9.73
2023-05-19T05:49:48.738Z,9.79
2023-05-19T05:50:52.352Z,9.83
2023-05-19T05:52:05.474Z,9.72
2023-05-19T05:53:20.412Z,9.82
2023-05-19T05:54:25.015Z,9.94
2023-05-19T05:55:28.011Z,9.92
2023-05-19T05:56:29.884Z,9.83
2023-05-19T05:57:31.537Z,9.74
2023-05-19T05:58:36.352Z,9.79
2023-05-19T05:59:40.685Z,9.75
2023-05-19T06:00:43.734Z,9.75
2023-05-19T06:01:45.440Z,9.74
2023-05-19T06:02:49.367Z,9.78
2023-05-19T06:03:52.431Z,9.84
2023-05-19T06:04:57.582Z,9.96
2023-05-19T06:05:59.471Z,10.03
2023-05-19T06:07:01.891Z,10.05
2023-05-19T06:08:07.971Z,9.99
2023-05-19T06:09:10.272Z,10.13
2023-05-19T06:10:11.934Z,10.03
2023-05-19T06:11:13.607Z,10.18
2023-05-19T06:12:16.260Z,10.20
2023-05-19T06:13:24.156Z,10.40
2023-05-19T06:14:25.973Z,10.44
2023-05-19T06:15:45.975Z,10.54
2023-05-19T06:16:55.696Z,10.39
2023-05-19T06:17:57.422Z,10.45
2023-05-19T06:18:59.229Z,10.34
2023-05-19T06:20:01.268Z,10.49
2023-05-19T06:21:03.520Z,10.61
2023-05-19T06:22:05.518Z,10.83
2023-05-19T06:23:08.193Z,10.83
2023-05-19T06:24:10.794Z,10.81
2023-05-19T06:25:12.597Z,11.06
2023-05-19T06:26:15.279Z,10.89
2023-05-19T06:27:16.927Z,10.88
2023-05-19T06:28:18.607Z,10.86
2023-05-19T06:29:20.382Z,10.97
2023-05-19T06:30:24.993Z,10.88
2023-05-19T06:31:35.765Z,10.97
2023-05-19T06:32:49.316Z,11.14
2023-05-19T06:33:51.052Z,11.16
2023-05-19T06:34:55.943Z,11.59
2023-05-19T06:35:57.602Z,11.57
2023-05-19T06:36:59.476Z,11.67
2023-05-19T06:38:01.240Z,11.58
2023-05-19T06:39:03.049Z,11.35
2023-05-19T06:40:07.032Z,11.40
2023-05-19T06:41:08.954Z,11.48
2023-05-19T06:42:10.794Z,11.12
2023-05-19T06:43:25.789Z,11.36
2023-05-19T06:44:29.687Z,11.52
2023-05-19T06:45:31.358Z,11.53
2023-05-19T06:46:35.289Z,11.47
2023-05-19T06:47:37.121Z,11.54
2023-05-19T06:48:39.216Z,11.42
2023-05-19T06:49:42.745Z,11.35
2023-05-19T06:50:44.660Z,11.37
2023-05-19T06:51:46.624Z,11.44
2023-05-19T06:52:48.593Z,11.19
2023-05-19T06:53:50.305Z,11.32
2023-05-19T06:54:51.978Z,11.22
2023-05-19T06:55:59.425Z,11.20
2023-05-19T06:57:05.718Z,11.04
2023-05-19T06:58:07.950Z,11.03
2023-05-19T06:59:09.791Z,10.92
2023-05-19T07:00:15.152Z,10.93
2023-05-19T07:01:21.374Z,10.93
2023-05-19T07:02:28.441Z,10.86
2023-05-19T07:03:31.214Z,10.93
2023-05-19T07:04:33.943Z,10.99
2023-05-19T07:05:35.711Z,10.95
2023-05-19T07:06:37.641Z,10.98
2023-05-19T07:07:39.320Z,11.04
2023-05-19T07:08:45.559Z,11.14
2023-05-19T07:09:47.523Z,11.30
2023-05-19T07:10:49.226Z,11.17
2023-05-19T07:11:52.079Z,11.28
2023-05-19T07:12:53.894Z,11.27
2023-05-19T07:13:58.441Z,11.31
2023-05-19T07:15:03.495Z,11.31
2023-05-19T07:16:05.582Z,11.31
2023-05-19T07:17:07.966Z,11.13
2023-05-19T07:18:11.433Z,11.19
2023-05-19T07:19:13.540Z,11.18
2023-05-19T07:20:15.200Z,11.43
2023-05-19T07:21:16.970Z,11.47
2023-05-19T07:22:18.576Z,11.55
2023-05-19T07:23:20.340Z,11.53
2023-05-19T07:24:22.549Z,11.53
2023-05-19T07:25:24.272Z,11.61
2023-05-19T07:26:26.821Z,11.48
2023-05-19T07:27:28.478Z,11.58
2023-05-19T07:28:30.152Z,11.42
2023-05-19T07:29:31.858Z,11.65
2023-05-19T07:30:33.951Z,11.65
2023-05-19T07:31:35.832Z,11.75
2023-05-19T07:32:37.609Z,11.84
2023-05-19T07:33:39.352Z,11.82
2023-05-19T07:34:40.972Z,11.86
2023-05-19T07:35:42.705Z,11.87
2023-05-19T07:36:44.343Z,11.87
2023-05-19T07:37:46.114Z,12.00
2023-05-19T07:38:47.940Z,12.28
2023-05-19T07:39:49.614Z,12.28
2023-05-19T07:40:51.232Z,12.26
2023-05-19T07:41:55.657Z,12.23
2023-05-19T07:42:57.297Z,12.20
2023-05-19T07:43:59.055Z,12.05
2023-05-19T07:45:01.187Z,11.92
2023-05-19T07:46:02.968Z,12.10
2023-05-19T07:47:04.686Z,11.99
2023-05-19T07:48:06.385Z,11.99
2023-05-19T07:49:08.082Z,12.09
2023-05-19T07:50:09.829Z,12.15
2023-05-19T07:51:12.669Z,12.10
2023-05-19T07:52:14.349Z,12.13
2023-05-19T07:53:16.690Z,12.40
2023-05-19T07:54:18.615Z,12.53
2023-05-19T07:55:23.104Z,12.65
2023-05-19T07:56:24.985Z,12.73
2023-05-19T07:57:26.730Z,12.81
2023-05-19T07:58:28.431Z,12.88
2023-05-19T07:59:30.122Z,13.01
2023-05-19T08:00:32.040Z,12.85
2023-05-19T08:01:34.208Z,13.02
2023-05-19T08:02:35.927Z,13.13
2023-05-19T08:03:37.795Z,13.32
2023-05-19T08:04:39.636Z,13.17
2023-05-19T08:05:41.367Z,13.30
2023-05-19T08:06:44.364Z,13.47
2023-05-19T08:07:46.133Z,13.33
2023-05-19T08:08:47.822Z,13.09
2023-05-19T08:09:49.477Z,13.32
2023-05-19T08:10:51.296Z,13.27
2023-05-19T08:11:52.981Z,13.61
2023-05-19T08:12:54.750Z,13.52
2023-05-19T08:13:56.414Z,13.52
2023-05-19T08:15:00.369Z,13.65
2023-05-19T08:16:03.093Z,13.59
2023-05-19T08:17:06.209Z,13.35
2023-05-19T08:18:07.904Z,13.54
2023-05-19T08:19:09.770Z,13.32
2023-05-19T08:20:14.390Z,13.32
2023-05-19T08:21:16.179Z,13.52
2023-05-19T08:22:17.861Z,13.59
2023-05-19T08:23:19.509Z,13.65
2023-05-19T08:24:21.131Z,13.97
2023-05-19T08:25:23.086Z,13.79
2023-05-19T08:26:24.725Z,13.99
2023-05-19T08:27:26.381Z,14.13
2023-05-19T08:28:28.004Z,14.16
2023-05-19T08:29:29.592Z,13.98
2023-05-19T08:30:31.405Z,13.59
2023-05-19T08:31:33.322Z,13.81
2023-05-19T08:32:34.995Z,13.78
2023-05-19T08:33:36.637Z,13.75
2023-05-19T08:34:38.321Z,13.66
2023-05-19T08:35:39.949Z,13.86
2023-05-19T08:36:41.930Z,13.72
2023-05-19T08:37:43.606Z,13.67
2023-05-19T08:38:45.577Z,14.11
2023-05-19T08:39:47.475Z,14.39
2023-05-19T08:40:49.136Z,14.56
2023-05-19T08:41:50.790Z,14.73
2023-05-19T08:42:52.407Z,14.42
2023-05-19T08:43:54.377Z,14.56
2023-05-19T08:44:56.105Z,14.25
2023-05-19T08:45:59.733Z,14.30
2023-05-19T08:47:05.301Z,14.49
2023-05-19T08:48:07.829Z,14.65
2023-05-19T08:49:13.326Z,14.89
2023-05-19T08:50:17.924Z,14.39
2023-05-19T08:51:25.460Z,14.44
2023-05-19T08:52:33.136Z,14.59
2023-05-19T08:53:41.053Z,14.22
2023-05-19T08:55:01.215Z,13.67
2023-05-19T08:56:11.808Z,13.60
2023-05-19T08:57:13.762Z,13.28
2023-05-19T08:58:16.561Z,12.95
2023-05-19T08:59:18.393Z,12.84
2023-05-19T09:00:20.828Z,12.76
2023-05-19T09:01:22.587Z,12.87
2023-05-19T09:02:24.576Z,12.81
2023-05-19T09:03:27.000Z,12.66
2023-05-19T09:04:30.176Z,12.75
2023-05-19T09:05:32.615Z,12.82
2023-05-19T09:06:34.915Z,12.99
2023-05-19T09:07:37.849Z,13.14
2023-05-19T09:08:40.436Z,13.34
2023-05-19T09:09:43.964Z,13.43
2023-05-19T09:10:45.751Z,13.53
2023-05-19T09:11:47.484Z,13.49
2023-05-19T09:12:49.817Z,13.54
2023-05-19T09:13:51.930Z,13.53
2023-05-19T09:14:53.872Z,13.86
2023-05-19T09:15:57.453Z,13.61
2023-05-19T09:16:59.182Z,13.51
2023-05-19T09:18:08.906Z,13.69
2023-05-19T09:19:15.392Z,13.49
2023-05-19T09:20:17.504Z,13.55
2023-05-19T09:21:19.166Z,13.86
2023-05-19T09:22:21.173Z,13.90
2023-05-19T09:23:24.931Z,13.79
2023-05-19T09:24:27.164Z,13.37
2023-05-19T09:25:28.816Z,13.05
2023-05-19T09:26:38.566Z,13.11
2023-05-19T09:27:40.300Z,12.87
2023-05-19T09:28:41.974Z,12.94
2023-05-19T09:29:43.917Z,12.99
2023-05-19T09:30:45.589Z,12.97
2023-05-19T09:31:50.864Z,13.02
2023-05-19T09:32:52.610Z,13.15
2023-05-19T09:33:54.337Z,13.45
2023-05-19T09:34:56.419Z,13.45
2023-05-19T09:35:58.252Z,13.64
2023-05-19T09:37:00.088Z,13.71
2023-05-19T09:38:01.744Z,13.78
2023-05-19T09:39:13.145Z,13.84
2023-05-19T09:40:16.354Z,13.78
2023-05-19T09:41:18.072Z,13.65
2023-05-19T09:42:27.179Z,13.49
2023-05-19T09:43:35.448Z,13.54
2023-05-19T09:44:37.343Z,13.53
2023-05-19T09:45:38.957Z,13.61
2023-05-19T09:46:48.244Z,13.43
2023-05-19T09:47:49.929Z,13.32
2023-05-19T09:48:52.948Z,13.24
2023-05-19T09:49:54.687Z,13.25
2023-05-19T09:50:57.876Z,13.33
2023-05-19T09:52:02.449Z,13.49
2023-05-19T09:53:04.103Z,13.32
2023-05-19T09:54:05.753Z,13.28
2023-05-19T09:55:10.404Z,13.27
2023-05-19T09:56:15.078Z,13.35
2023-05-19T09:57:16.978Z,13.39
2023-05-19T09:58:19.076Z,13.23
2023-05-19T09:59:24.392Z,13.32
2023-05-19T10:00:26.792Z,13.17
2023-05-19T10:01:28.290Z,13.35
2023-05-19T10:02:30.443Z,13.28
2023-05-19T10:03:35.085Z,13.15
2023-05-19T10:04:37.210Z,13.00
2023-05-19T10:05:39.821Z,13.08
2023-05-19T10:06:41.897Z,13.27
2023-05-19T10:07:51.600Z,13.26
2023-05-19T10:08:54.668Z,13.27
2023-05-19T10:09:59.616Z,13.21
2023-05-19T10:11:01.824Z,13.27
2023-05-19T10:12:03.865Z,13.40
2023-05-19T10:13:06.107Z,13.57
2023-05-19T10:14:08.264Z,13.95
2023-05-19T10:15:11.822Z,14.38
2023-05-19T10:16:13.822Z,14.37
2023-05-19T10:17:15.632Z,14.35
2023-05-19T10:18:18.700Z,14.14
2023-05-19T10:19:24.872Z,14.14
2023-05-19T10:20:26.955Z,13.95
2023-05-19T10:21:28.799Z,13.84
2023-05-19T10:22:30.509Z,13.32
2023-05-19T10:23:32.179Z,13.24
2023-05-19T10:24:33.827Z,13.06
2023-05-19T10:25:36.531Z,13.36
2023-05-19T10:26:39.900Z,13.34
2023-05-19T10:27:51.502Z,13.45
2023-05-19T10:28:53.329Z,13.22
2023-05-19T10:29:57.615Z,13.20
2023-05-19T10:31:00.603Z,13.28
2023-05-19T10:32:08.386Z,13.30
2023-05-19T10:33:12.957Z,13.32
2023-05-19T10:34:15.044Z,13.40
2023-05-19T10:35:35.375Z,13.11
2023-05-19T10:36:49.909Z,13.05
2023-05-19T10:37:53.604Z,12.97
2023-05-19T10:39:06.393Z,13.02
2023-05-19T10:40:11.979Z,12.96
2023-05-19T10:41:23.034Z,13.15
2023-05-19T10:42:36.413Z,13.19
2023-05-19T10:44:07.357Z,13.29
2023-05-19T10:45:21.123Z,13.22
2023-05-19T10:46:29.717Z,13.32
2023-05-19T10:47:32.499Z,13.48
2023-05-19T10:48:36.463Z,13.53
2023-05-19T10:49:38.272Z,13.43
2023-05-19T10:50:39.912Z,13.49
2023-05-19T10:51:45.467Z,13.43
2023-05-19T10:52:53.871Z,13.58
2023-05-19T10:53:55.537Z,13.62
2023-05-19T10:54:58.376Z,13.29
2023-05-19T10:56:06.851Z,13.15
2023-05-19T10:57:09.907Z,13.21
2023-05-19T10:58:11.873Z,13.18
2023-05-19T10:59:32.244Z,13.25
2023-05-19T11:00:34.013Z,13.32
2023-05-19T11:01:37.303Z,13.26
2023-05-19T11:02:41.503Z,13.10
2023-05-19T11:03:53.861Z,13.06
2023-05-19T11:04:58.457Z,12.89
2023-05-19T11:06:19.201Z,13.19
2023-05-19T11:07:22.287Z,13.20
2023-05-19T11:08:33.651Z,13.06
2023-05-19T11:09:41.060Z,12.92
2023-05-19T11:10:48.370Z,12.85
2023-05-19T11:11:53.120Z,12.64
2023-05-19T11:14:00.384Z,12.63
2023-05-19T11:15:03.371Z,12.63
2023-05-19T11:16:09.227Z,12.53
2023-05-19T11:17:15.217Z,12.55
2023-05-19T11:18:17.083Z,12.58
2023-05-19T11:19:41.072Z,12.52
2023-05-19T11:20:42.749Z,12.47
2023-05-19T11:21:52.488Z,12.45
2023-05-19T11:23:15.094Z,12.62
2023-05-19T11:24:41.955Z,12.98
2023-05-19T11:25:54.357Z,13.14
2023-05-19T11:26:56.272Z,13.15
2023-05-19T11:27:57.962Z,13.22
2023-05-19T11:28:59.935Z,13.28
2023-05-19T11:30:14.921Z,13.34
2023-05-19T11:31:16.692Z,13.44
2023-05-19T11:32:20.611Z,13.57
2023-05-19T11:33:27.045Z,13.56
2023-05-19T11:34:30.652Z,13.59
2023-05-19T11:35:35.372Z,13.72
2023-05-19T11:36:40.062Z,13.72
2023-05-19T11:37:42.657Z,13.70
2023-05-19T11:38:45.201Z,13.72
2023-05-19T11:39:47.467Z,13.77
2023-05-19T11:40:49.917Z,13.85
2023-05-19T11:41:51.460Z,13.68
2023-05-19T11:42:53.065Z,13.78
2023-05-19T11:43:54.711Z,13.37
2023-05-19T11:44:56.653Z,13.66
2023-05-19T11:45:58.382Z,13.61
2023-05-19T11:47:00.082Z,13.73
2023-05-19T11:48:05.432Z,14.05
2023-05-19T11:49:07.289Z,13.88
2023-05-19T11:50:11.326Z,13.45
2023-05-19T11:51:13.256Z,13.49
2023-05-19T11:52:15.185Z,13.36
2023-05-19T11:53:17.277Z,13.59
2023-05-19T11:54:19.317Z,13.37
2023-05-19T11:55:22.211Z,13.35
2023-05-19T11:56:23.953Z,13.60
2023-05-19T11:57:25.603Z,13.54
2023-05-19T11:58:27.922Z,13.62
2023-05-19T11:59:31.728Z,13.66
2023-05-19T12:00:38.092Z,13.63
2023-05-19T12:01:39.769Z,13.53
2023-05-19T12:02:41.536Z,13.41
2023-05-19T12:03:43.433Z,13.46
2023-05-19T12:04:46.060Z,13.55
2023-05-19T12:05:49.205Z,13.70
2023-05-19T12:06:52.299Z,13.58
2023-05-19T12:07:54.104Z,13.47
2023-05-19T12:08:55.892Z,13.36
2023-05-19T12:09:59.950Z,13.47
2023-05-19T12:11:01.775Z,13.12
2023-05-19T12:12:03.799Z,13.00
2023-05-19T12:13:08.073Z,13.16
2023-05-19T12:14:09.759Z,13.17
2023-05-19T12:15:11.746Z,13.22
2023-05-19T12:16:13.690Z,12.98
2023-05-19T12:17:16.948Z,13.09
2023-05-19T12:18:19.342Z,13.12
2023-05-19T12:19:23.987Z,13.22
2023-05-19T12:20:26.784Z,13.22
2023-05-19T12:21:34.269Z,12.99
2023-05-19T12:22:36.857Z,13.02
2023-05-19T12:23:38.980Z,12.78
2023-05-19T12:24:42.701Z,12.83
2023-05-19T12:25:44.526Z,12.90
2023-05-19T12:26:46.120Z,13.17
2023-05-19T12:27:49.563Z,13.07
2023-05-19T12:28:52.715Z,13.12
2023-05-19T12:29:57.156Z,12.97
2023-05-19T12:30:59.022Z,12.95
2023-05-19T12:32:01.748Z,12.76
2023-05-19T12:33:03.726Z,12.78
2023-05-19T12:34:05.477Z,12.77
2023-05-19T12:35:07.704Z,12.74
2023-05-19T12:36:10.350Z,12.60
2023-05-19T12:37:12.036Z,12.88
2023-05-19T12:38:14.534Z,12.88
2023-05-19T12:39:16.687Z,12.89
2023-05-19T12:40:18.345Z,12.83
2023-05-19T12:41:20.082Z,12.92
2023-05-19T12:42:22.788Z,13.23
2023-05-19T12:43:25.154Z,13.26
2023-05-19T12:44:28.021Z,13.08
2023-05-19T12:45:37.350Z,12.91
2023-05-19T12:46:40.471Z,13.14
2023-05-19T12:47:42.130Z,13.10
2023-05-19T12:48:44.495Z,13.11
2023-05-19T12:49:56.856Z,13.19
2023-05-19T12:50:58.602Z,13.19
2023-05-19T12:52:06.083Z,13.06
2023-05-19T12:53:12.167Z,13.20
2023-05-19T12:54:13.876Z,13.06
2023-05-19T12:55:16.703Z,13.34
2023-05-19T12:56:18.357Z,13.39
2023-05-19T12:57:20.937Z,13.45
2023-05-19T12:58:24.167Z,13.60
2023-05-19T12:59:37.411Z,13.54
2023-05-19T13:00:45.387Z,13.56
2023-05-19T13:01:56.261Z,13.58
2023-05-19T13:03:05.359Z,13.71
2023-05-19T13:04:07.778Z,13.66
2023-05-19T13:05:09.607Z,13.89
2023-05-19T13:06:11.767Z,13.76
2023-05-19T13:07:13.604Z,13.89
2023-05-19T13:08:20.307Z,13.61
2023-05-19T13:09:22.179Z,13.71
2023-05-19T13:10:26.893Z,13.83
2023-05-19T13:11:29.166Z,13.82
2023-05-19T13:12:30.803Z,13.74
2023-05-19T13:13:32.706Z,13.83
2023-05-19T13:14:34.410Z,13.95
2023-05-19T13:15:41.735Z,13.97
2023-05-19T13:16:43.442Z,14.07
2023-05-19T13:17:46.431Z,14.38
2023-05-19T13:18:48.185Z,14.14
2023-05-19T13:19:49.985Z,14.01
2023-05-19T13:20:53.017Z,14.35
2023-05-19T13:21:54.819Z,14.33
2023-05-19T13:22:57.068Z,14.49
2023-05-19T13:23:58.736Z,14.56
2023-05-19T13:25:02.202Z,14.62
2023-05-19T13:26:05.034Z,14.39
2023-05-19T13:27:06.694Z,14.43
2023-05-19T13:28:08.752Z,14.55
2023-05-19T13:29:11.885Z,14.73
2023-05-19T13:30:14.110Z,14.73
2023-05-19T13:31:15.873Z,14.68
2023-05-19T13:32:17.531Z,14.76
2023-05-19T13:33:19.173Z,14.65
2023-05-19T13:34:20.946Z,14.90
2023-05-19T13:35:22.735Z,14.50
2023-05-19T13:36:25.627Z,14.53
2023-05-19T13:37:27.580Z,14.39
2023-05-19T13:38:30.394Z,14.51
2023-05-19T13:39:32.086Z,14.51
2023-05-19T13:40:34.966Z,14.52
2023-05-19T13:41:38.353Z,14.49
2023-05-19T13:42:40.955Z,14.28
2023-05-19T13:43:42.592Z,14.18
2023-05-19T13:44:47.565Z,14.20
2023-05-19T13:45:49.387Z,14.13
2023-05-19T13:46:52.335Z,14.06
2023-05-19T13:47:54.253Z,14.08
2023-05-19T13:48:55.922Z,13.92
2023-05-19T13:49:57.684Z,14.02
2023-05-19T13:50:59.626Z,13.99
2023-05-19T13:52:01.269Z,13.99
2023-05-19T13:53:03.691Z,13.84
2023-05-19T13:54:05.308Z,13.74
2023-05-19T13:55:07.719Z,13.92
2023-05-19T13:56:09.293Z,14.10
2023-05-19T13:57:11.845Z,14.38